sensor_id;sensor_type;location;lat;lon;timestamp;P1;durP1;ratioP1;P2;durP2;ratioP2
71290;SDS011;59073;51.994;4.448;2023-09-19T00:01:39;2.00;;;1.64;;
71290;SDS011;59073;51.994;4.448;2023-09-19T00:04:11;1.35;;;1.12;;
71290;SDS011;59073;51.994;4.448;2023-09-19T00:06:37;1.50;;;1.24;;
71290;SDS011;59073;51.994;4.448;2023-09-19T00:09:03;1.48;;;1.23;;
71290;SDS011;59073;51.994;4.448;2023-09-19T00:11:29;1.93;;;1.56;;
71290;SDS011;59073;51.994;4.448;2023-09-19T00:13:54;1.44;;;1.16;;
71290;SDS011;59073;51.994;4.448;2023-09-19T00:16:20;1.85;;;1.49;;
71290;SDS011;59073;51.994;4.448;2023-09-19T00:18:45;2.25;;;1.77;;
71290;SDS011;59073;51.994;4.448;2023-09-19T00:21:11;1.97;;;1.55;;
71290;SDS011;59073;51.994;4.448;2023-09-19T00:23:37;1.90;;;1.48;;
71290;SDS011;59073;51.994;4.448;2023-09-19T00:26:03;2.07;;;1.61;;
71290;SDS011;59073;51.994;4.448;2023-09-19T00:28:29;1.58;;;1.22;;
71290;SDS011;59073;51.994;4.448;2023-09-19T00:30:55;1.86;;;1.44;;
71290;SDS011;59073;51.994;4.448;2023-09-19T00:33:21;1.74;;;1.35;;
71290;SDS011;59073;51.994;4.448;2023-09-19T00:35:50;2.08;;;1.64;;
71290;SDS011;59073;51.994;4.448;2023-09-19T00:38:17;1.86;;;1.47;;
71290;SDS011;59073;51.994;4.448;2023-09-19T00:40:48;1.93;;;1.48;;
71290;SDS011;59073;51.994;4.448;2023-09-19T00:43:15;2.13;;;1.65;;
71290;SDS011;59073;51.994;4.448;2023-09-19T00:45:42;1.88;;;1.48;;
71290;SDS011;59073;51.994;4.448;2023-09-19T00:48:10;2.07;;;1.62;;
71290;SDS011;59073;51.994;4.448;2023-09-19T00:50:37;2.02;;;1.59;;
71290;SDS011;59073;51.994;4.448;2023-09-19T00:53:06;2.05;;;1.60;;
71290;SDS011;59073;51.994;4.448;2023-09-19T00:55:33;2.18;;;1.68;;
71290;SDS011;59073;51.994;4.448;2023-09-19T00:57:59;2.14;;;1.66;;
71290;SDS011;59073;51.994;4.448;2023-09-19T01:00:25;2.41;;;1.86;;
71290;SDS011;59073;51.994;4.448;2023-09-19T01:02:51;2.42;;;1.82;;
71290;SDS011;59073;51.994;4.448;2023-09-19T01:05:17;2.17;;;1.61;;
71290;SDS011;59073;51.994;4.448;2023-09-19T01:07:43;2.59;;;1.93;;
71290;SDS011;59073;51.994;4.448;2023-09-19T01:10:14;2.77;;;2.03;;
71290;SDS011;59073;51.994;4.448;2023-09-19T01:20:53;2.79;;;2.00;;
71290;SDS011;59073;51.994;4.448;2023-09-19T01:24:07;2.71;;;1.92;;
71290;SDS011;59073;51.994;4.448;2023-09-19T01:26:52;2.87;;;2.10;;
71290;SDS011;59073;51.994;4.448;2023-09-19T01:29:49;2.87;;;2.08;;
71290;SDS011;59073;51.994;4.448;2023-09-19T01:32:16;3.00;;;2.13;;
71290;SDS011;59073;51.994;4.448;2023-09-19T01:37:17;2.79;;;1.97;;
71290;SDS011;59073;51.994;4.448;2023-09-19T01:39:48;2.78;;;2.02;;
71290;SDS011;59073;51.994;4.448;2023-09-19T01:42:28;2.96;;;2.10;;
71290;SDS011;59073;51.994;4.448;2023-09-19T01:48:11;3.23;;;2.25;;
71290;SDS011;59073;51.994;4.448;2023-09-19T01:50:42;2.97;;;2.05;;
71290;SDS011;59073;51.994;4.448;2023-09-19T01:53:21;2.89;;;1.98;;
71290;SDS011;59073;51.994;4.448;2023-09-19T01:55:53;2.82;;;1.98;;
71290;SDS011;59073;51.994;4.448;2023-09-19T01:58:29;3.18;;;2.21;;
71290;SDS011;59073;51.994;4.448;2023-09-19T02:01:26;3.37;;;2.39;;
71290;SDS011;59073;51.994;4.448;2023-09-19T02:03:53;2.66;;;1.90;;
71290;SDS011;59073;51.994;4.448;2023-09-19T02:06:21;2.68;;;1.94;;
71290;SDS011;59073;51.994;4.448;2023-09-19T02:08:47;2.49;;;1.85;;
71290;SDS011;59073;51.994;4.448;2023-09-19T02:11:12;2.69;;;1.97;;
71290;SDS011;59073;51.994;4.448;2023-09-19T02:13:38;2.94;;;2.13;;
71290;SDS011;59073;51.994;4.448;2023-09-19T02:16:05;2.48;;;1.77;;
71290;SDS011;59073;51.994;4.448;2023-09-19T02:18:34;2.75;;;1.93;;
71290;SDS011;59073;51.994;4.448;2023-09-19T02:21:03;2.52;;;1.79;;
71290;SDS011;59073;51.994;4.448;2023-09-19T02:23:37;2.52;;;1.78;;
71290;SDS011;59073;51.994;4.448;2023-09-19T02:26:03;2.51;;;1.73;;
71290;SDS011;59073;51.994;4.448;2023-09-19T02:28:31;2.92;;;2.03;;
71290;SDS011;59073;51.994;4.448;2023-09-19T02:30:57;2.50;;;1.75;;
71290;SDS011;59073;51.994;4.448;2023-09-19T02:33:23;2.79;;;1.93;;
71290;SDS011;59073;51.994;4.448;2023-09-19T02:35:49;2.70;;;1.87;;
71290;SDS011;59073;51.994;4.448;2023-09-19T02:38:15;2.50;;;1.70;;
71290;SDS011;59073;51.994;4.448;2023-09-19T02:40:45;3.27;;;2.22;;
71290;SDS011;59073;51.994;4.448;2023-09-19T02:43:11;2.74;;;1.86;;
71290;SDS011;59073;51.994;4.448;2023-09-19T02:45:36;2.65;;;1.80;;
71290;SDS011;59073;51.994;4.448;2023-09-19T02:48:02;3.28;;;2.23;;
71290;SDS011;59073;51.994;4.448;2023-09-19T02:50:27;2.40;;;1.65;;
71290;SDS011;59073;51.994;4.448;2023-09-19T02:52:53;2.55;;;1.75;;
71290;SDS011;59073;51.994;4.448;2023-09-19T02:55:18;2.68;;;1.85;;
71290;SDS011;59073;51.994;4.448;2023-09-19T02:57:47;2.27;;;1.60;;
71290;SDS011;59073;51.994;4.448;2023-09-19T03:00:14;2.35;;;1.63;;
71290;SDS011;59073;51.994;4.448;2023-09-19T03:02:41;2.65;;;1.86;;
71290;SDS011;59073;51.994;4.448;2023-09-19T03:05:07;2.75;;;1.95;;
71290;SDS011;59073;51.994;4.448;2023-09-19T03:07:33;2.53;;;1.79;;
71290;SDS011;59073;51.994;4.448;2023-09-19T03:09:59;2.63;;;1.83;;
71290;SDS011;59073;51.994;4.448;2023-09-19T03:12:27;3.35;;;2.32;;
71290;SDS011;59073;51.994;4.448;2023-09-19T03:14:53;2.72;;;1.89;;
71290;SDS011;59073;51.994;4.448;2023-09-19T03:17:18;2.79;;;1.95;;
71290;SDS011;59073;51.994;4.448;2023-09-19T03:19:45;2.41;;;1.65;;
71290;SDS011;59073;51.994;4.448;2023-09-19T03:22:12;2.63;;;1.80;;
71290;SDS011;59073;51.994;4.448;2023-09-19T03:24:38;2.46;;;1.68;;
71290;SDS011;59073;51.994;4.448;2023-09-19T03:27:03;2.67;;;1.85;;
71290;SDS011;59073;51.994;4.448;2023-09-19T03:29:29;2.06;;;1.45;;
71290;SDS011;59073;51.994;4.448;2023-09-19T03:31:54;2.74;;;1.88;;
71290;SDS011;59073;51.994;4.448;2023-09-19T03:34:20;2.25;;;1.57;;
71290;SDS011;59073;51.994;4.448;2023-09-19T03:36:45;2.42;;;1.69;;
71290;SDS011;59073;51.994;4.448;2023-09-19T03:39:11;2.61;;;1.84;;
71290;SDS011;59073;51.994;4.448;2023-09-19T03:41:37;1.98;;;1.42;;
71290;SDS011;59073;51.994;4.448;2023-09-19T03:44:02;2.31;;;1.68;;
71290;SDS011;59073;51.994;4.448;2023-09-19T03:46:28;1.75;;;1.26;;
71290;SDS011;59073;51.994;4.448;2023-09-19T03:48:53;2.53;;;1.79;;
71290;SDS011;59073;51.994;4.448;2023-09-19T03:51:20;2.56;;;1.80;;
71290;SDS011;59073;51.994;4.448;2023-09-19T03:53:45;2.58;;;1.84;;
71290;SDS011;59073;51.994;4.448;2023-09-19T03:56:11;3.19;;;2.23;;
71290;SDS011;59073;51.994;4.448;2023-09-19T03:58:37;2.72;;;1.88;;
71290;SDS011;59073;51.994;4.448;2023-09-19T04:01:05;2.99;;;2.03;;
71290;SDS011;59073;51.994;4.448;2023-09-19T04:03:34;2.93;;;2.02;;
71290;SDS011;59073;51.994;4.448;2023-09-19T04:06:10;2.97;;;2.04;;
71290;SDS011;59073;51.994;4.448;2023-09-19T04:08:36;3.42;;;2.32;;
71290;SDS011;59073;51.994;4.448;2023-09-19T04:11:01;3.17;;;2.16;;
71290;SDS011;59073;51.994;4.448;2023-09-19T04:13:26;2.98;;;2.06;;
71290;SDS011;59073;51.994;4.448;2023-09-19T04:15:52;3.29;;;2.29;;
71290;SDS011;59073;51.994;4.448;2023-09-19T04:18:17;2.58;;;1.82;;
71290;SDS011;59073;51.994;4.448;2023-09-19T04:20:47;2.40;;;1.73;;
71290;SDS011;59073;51.994;4.448;2023-09-19T04:23:14;2.78;;;2.06;;
71290;SDS011;59073;51.994;4.448;2023-09-19T04:25:40;2.59;;;1.93;;
71290;SDS011;59073;51.994;4.448;2023-09-19T04:28:05;3.14;;;2.25;;
71290;SDS011;59073;51.994;4.448;2023-09-19T04:30:31;2.95;;;2.08;;
71290;SDS011;59073;51.994;4.448;2023-09-19T04:32:57;2.95;;;2.10;;
71290;SDS011;59073;51.994;4.448;2023-09-19T04:35:22;3.29;;;2.39;;
71290;SDS011;59073;51.994;4.448;2023-09-19T04:37:47;2.50;;;1.85;;
71290;SDS011;59073;51.994;4.448;2023-09-19T04:40:13;2.36;;;1.77;;
71290;SDS011;59073;51.994;4.448;2023-09-19T04:42:45;2.58;;;1.90;;
71290;SDS011;59073;51.994;4.448;2023-09-19T04:45:18;2.84;;;2.09;;
71290;SDS011;59073;51.994;4.448;2023-09-19T04:47:45;2.44;;;1.80;;
71290;SDS011;59073;51.994;4.448;2023-09-19T04:50:11;2.55;;;1.87;;
71290;SDS011;59073;51.994;4.448;2023-09-19T04:52:38;2.79;;;2.04;;
71290;SDS011;59073;51.994;4.448;2023-09-19T04:55:04;3.00;;;2.18;;
71290;SDS011;59073;51.994;4.448;2023-09-19T04:57:30;2.65;;;1.96;;
71290;SDS011;59073;51.994;4.448;2023-09-19T04:59:56;2.47;;;1.86;;
71290;SDS011;59073;51.994;4.448;2023-09-19T05:02:22;2.87;;;2.18;;
71290;SDS011;59073;51.994;4.448;2023-09-19T05:04:47;2.28;;;1.73;;
71290;SDS011;59073;51.994;4.448;2023-09-19T05:07:13;2.84;;;2.14;;
71290;SDS011;59073;51.994;4.448;2023-09-19T05:09:38;2.67;;;1.98;;
71290;SDS011;59073;51.994;4.448;2023-09-19T05:12:04;2.55;;;1.87;;
71290;SDS011;59073;51.994;4.448;2023-09-19T05:14:29;3.24;;;2.36;;
71290;SDS011;59073;51.994;4.448;2023-09-19T05:16:55;2.37;;;1.74;;
71290;SDS011;59073;51.994;4.448;2023-09-19T05:19:20;2.90;;;2.12;;
71290;SDS011;59073;51.994;4.448;2023-09-19T05:21:46;3.19;;;2.30;;
71290;SDS011;59073;51.994;4.448;2023-09-19T05:24:12;2.53;;;1.83;;
71290;SDS011;59073;51.994;4.448;2023-09-19T05:26:39;2.79;;;2.04;;
71290;SDS011;59073;51.994;4.448;2023-09-19T05:29:05;2.97;;;2.18;;
71290;SDS011;59073;51.994;4.448;2023-09-19T05:31:33;2.51;;;1.85;;
71290;SDS011;59073;51.994;4.448;2023-09-19T05:34:01;2.62;;;1.91;;
71290;SDS011;59073;51.994;4.448;2023-09-19T05:36:26;2.87;;;2.12;;
71290;SDS011;59073;51.994;4.448;2023-09-19T05:38:54;2.81;;;2.06;;
71290;SDS011;59073;51.994;4.448;2023-09-19T05:41:20;2.61;;;1.89;;
71290;SDS011;59073;51.994;4.448;2023-09-19T05:43:48;3.23;;;2.36;;
71290;SDS011;59073;51.994;4.448;2023-09-19T05:46:15;2.76;;;2.05;;
71290;SDS011;59073;51.994;4.448;2023-09-19T05:48:41;3.12;;;2.37;;
71290;SDS011;59073;51.994;4.448;2023-09-19T05:51:06;2.62;;;1.98;;
71290;SDS011;59073;51.994;4.448;2023-09-19T05:53:32;2.69;;;1.97;;
71290;SDS011;59073;51.994;4.448;2023-09-19T05:55:58;3.38;;;2.46;;
71290;SDS011;59073;51.994;4.448;2023-09-19T05:58:23;3.37;;;2.44;;
71290;SDS011;59073;51.994;4.448;2023-09-19T06:00:49;3.32;;;2.39;;
71290;SDS011;59073;51.994;4.448;2023-09-19T06:03:15;2.78;;;2.03;;
71290;SDS011;59073;51.994;4.448;2023-09-19T06:05:42;3.51;;;2.58;;
71290;SDS011;59073;51.994;4.448;2023-09-19T06:08:07;3.39;;;2.45;;
71290;SDS011;59073;51.994;4.448;2023-09-19T06:10:34;3.22;;;2.30;;
71290;SDS011;59073;51.994;4.448;2023-09-19T06:13:01;3.48;;;2.53;;
71290;SDS011;59073;51.994;4.448;2023-09-19T06:15:29;2.74;;;2.03;;
71290;SDS011;59073;51.994;4.448;2023-09-19T06:17:57;3.39;;;2.50;;
71290;SDS011;59073;51.994;4.448;2023-09-19T06:20:25;2.75;;;2.04;;
71290;SDS011;59073;51.994;4.448;2023-09-19T06:22:51;3.69;;;2.60;;
71290;SDS011;59073;51.994;4.448;2023-09-19T06:25:18;3.13;;;2.20;;
71290;SDS011;59073;51.994;4.448;2023-09-19T06:30:13;3.17;;;2.28;;
71290;SDS011;59073;51.994;4.448;2023-09-19T06:32:42;3.32;;;2.37;;
71290;SDS011;59073;51.994;4.448;2023-09-19T06:35:11;3.65;;;2.56;;
71290;SDS011;59073;51.994;4.448;2023-09-19T06:37:38;3.43;;;2.34;;
71290;SDS011;59073;51.994;4.448;2023-09-19T06:40:08;3.19;;;2.25;;
71290;SDS011;59073;51.994;4.448;2023-09-19T06:42:41;2.88;;;2.12;;
71290;SDS011;59073;51.994;4.448;2023-09-19T06:45:11;3.71;;;2.63;;
71290;SDS011;59073;51.994;4.448;2023-09-19T06:47:39;3.51;;;2.43;;
71290;SDS011;59073;51.994;4.448;2023-09-19T06:50:05;3.31;;;2.30;;
71290;SDS011;59073;51.994;4.448;2023-09-19T06:52:34;3.13;;;2.28;;
71290;SDS011;59073;51.994;4.448;2023-09-19T06:55:00;2.79;;;2.05;;
71290;SDS011;59073;51.994;4.448;2023-09-19T06:57:28;3.16;;;2.29;;
71290;SDS011;59073;51.994;4.448;2023-09-19T06:59:53;3.23;;;2.32;;
71290;SDS011;59073;51.994;4.448;2023-09-19T07:02:19;4.02;;;2.87;;
71290;SDS011;59073;51.994;4.448;2023-09-19T07:04:47;3.15;;;2.26;;
71290;SDS011;59073;51.994;4.448;2023-09-19T07:07:12;3.20;;;2.33;;
71290;SDS011;59073;51.994;4.448;2023-09-19T07:09:39;3.36;;;2.50;;
71290;SDS011;59073;51.994;4.448;2023-09-19T07:12:04;2.82;;;2.08;;
71290;SDS011;59073;51.994;4.448;2023-09-19T07:14:30;2.61;;;1.92;;
71290;SDS011;59073;51.994;4.448;2023-09-19T07:16:55;3.24;;;2.38;;
71290;SDS011;59073;51.994;4.448;2023-09-19T07:19:21;3.22;;;2.37;;
71290;SDS011;59073;51.994;4.448;2023-09-19T07:21:46;2.91;;;2.20;;
71290;SDS011;59073;51.994;4.448;2023-09-19T07:24:12;3.13;;;2.32;;
71290;SDS011;59073;51.994;4.448;2023-09-19T07:26:38;3.32;;;2.44;;
71290;SDS011;59073;51.994;4.448;2023-09-19T07:29:05;3.73;;;2.72;;
71290;SDS011;59073;51.994;4.448;2023-09-19T07:31:33;4.20;;;2.97;;
71290;SDS011;59073;51.994;4.448;2023-09-19T07:33:59;3.39;;;2.39;;
71290;SDS011;59073;51.994;4.448;2023-09-19T07:36:24;3.55;;;2.57;;
71290;SDS011;59073;51.994;4.448;2023-09-19T07:38:50;3.59;;;2.60;;
71290;SDS011;59073;51.994;4.448;2023-09-19T07:41:15;3.24;;;2.35;;
71290;SDS011;59073;51.994;4.448;2023-09-19T07:43:41;3.57;;;2.57;;
71290;SDS011;59073;51.994;4.448;2023-09-19T07:46:06;3.62;;;2.56;;
71290;SDS011;59073;51.994;4.448;2023-09-19T07:48:34;4.15;;;2.90;;
71290;SDS011;59073;51.994;4.448;2023-09-19T07:51:04;4.00;;;2.80;;
71290;SDS011;59073;51.994;4.448;2023-09-19T07:53:31;3.54;;;2.50;;
71290;SDS011;59073;51.994;4.448;2023-09-19T07:56:06;3.44;;;2.44;;
71290;SDS011;59073;51.994;4.448;2023-09-19T07:58:33;4.00;;;2.87;;
71290;SDS011;59073;51.994;4.448;2023-09-19T08:01:06;3.49;;;2.51;;
71290;SDS011;59073;51.994;4.448;2023-09-19T08:03:34;3.58;;;2.61;;
71290;SDS011;59073;51.994;4.448;2023-09-19T08:06:00;3.43;;;2.45;;
71290;SDS011;59073;51.994;4.448;2023-09-19T08:08:26;3.94;;;2.84;;
71290;SDS011;59073;51.994;4.448;2023-09-19T08:10:55;3.45;;;2.49;;
71290;SDS011;59073;51.994;4.448;2023-09-19T08:13:24;3.87;;;2.74;;
71290;SDS011;59073;51.994;4.448;2023-09-19T08:15:51;3.56;;;2.53;;
71290;SDS011;59073;51.994;4.448;2023-09-19T08:18:20;3.03;;;2.18;;
71290;SDS011;59073;51.994;4.448;2023-09-19T08:20:50;3.58;;;2.58;;
71290;SDS011;59073;51.994;4.448;2023-09-19T08:23:17;3.25;;;2.34;;
71290;SDS011;59073;51.994;4.448;2023-09-19T08:25:45;4.04;;;2.85;;
71290;SDS011;59073;51.994;4.448;2023-09-19T08:28:11;4.09;;;2.86;;
71290;SDS011;59073;51.994;4.448;2023-09-19T08:30:39;3.93;;;2.76;;
71290;SDS011;59073;51.994;4.448;2023-09-19T08:33:06;3.94;;;2.76;;
71290;SDS011;59073;51.994;4.448;2023-09-19T08:35:32;3.47;;;2.39;;
71290;SDS011;59073;51.994;4.448;2023-09-19T08:37:58;3.68;;;2.57;;
71290;SDS011;59073;51.994;4.448;2023-09-19T08:40:29;3.95;;;2.75;;
71290;SDS011;59073;51.994;4.448;2023-09-19T08:42:59;3.23;;;2.31;;
71290;SDS011;59073;51.994;4.448;2023-09-19T08:45:26;3.44;;;2.52;;
71290;SDS011;59073;51.994;4.448;2023-09-19T08:50:31;3.33;;;2.42;;
71290;SDS011;59073;51.994;4.448;2023-09-19T08:53:01;3.69;;;2.64;;
71290;SDS011;59073;51.994;4.448;2023-09-19T08:55:28;3.27;;;2.32;;
71290;SDS011;59073;51.994;4.448;2023-09-19T08:58:01;3.83;;;2.71;;
71290;SDS011;59073;51.994;4.448;2023-09-19T09:00:29;3.83;;;2.73;;
71290;SDS011;59073;51.994;4.448;2023-09-19T09:02:56;3.54;;;2.49;;
71290;SDS011;59073;51.994;4.448;2023-09-19T09:05:23;3.63;;;2.49;;
71290;SDS011;59073;51.994;4.448;2023-09-19T09:07:50;3.98;;;2.69;;
71290;SDS011;59073;51.994;4.448;2023-09-19T09:10:20;4.46;;;3.02;;
71290;SDS011;59073;51.994;4.448;2023-09-19T09:12:52;4.00;;;2.75;;
71290;SDS011;59073;51.994;4.448;2023-09-19T09:15:20;4.46;;;3.06;;
71290;SDS011;59073;51.994;4.448;2023-09-19T09:17:50;3.64;;;2.52;;
71290;SDS011;59073;51.994;4.448;2023-09-19T09:20:18;3.73;;;2.60;;
71290;SDS011;59073;51.994;4.448;2023-09-19T09:22:50;3.53;;;2.46;;
71290;SDS011;59073;51.994;4.448;2023-09-19T09:25:20;4.17;;;2.96;;
71290;SDS011;59073;51.994;4.448;2023-09-19T09:27:59;3.58;;;2.48;;
71290;SDS011;59073;51.994;4.448;2023-09-19T09:30:35;3.66;;;2.51;;
71290;SDS011;59073;51.994;4.448;2023-09-19T09:33:11;3.64;;;2.55;;
71290;SDS011;59073;51.994;4.448;2023-09-19T09:35:57;3.87;;;2.72;;
71290;SDS011;59073;51.994;4.448;2023-09-19T09:38:28;3.15;;;2.29;;
71290;SDS011;59073;51.994;4.448;2023-09-19T09:40:58;3.06;;;2.22;;
71290;SDS011;59073;51.994;4.448;2023-09-19T09:48:48;3.76;;;2.72;;
71290;SDS011;59073;51.994;4.448;2023-09-19T09:51:50;3.17;;;2.27;;
71290;SDS011;59073;51.994;4.448;2023-09-19T09:54:28;4.32;;;3.01;;
71290;SDS011;59073;51.994;4.448;2023-09-19T09:57:09;3.38;;;2.36;;
71290;SDS011;59073;51.994;4.448;2023-09-19T09:59:57;3.05;;;2.15;;
71290;SDS011;59073;51.994;4.448;2023-09-19T10:02:40;3.31;;;2.31;;
71290;SDS011;59073;51.994;4.448;2023-09-19T10:05:13;3.56;;;2.48;;
71290;SDS011;59073;51.994;4.448;2023-09-19T10:07:49;3.38;;;2.38;;
71290;SDS011;59073;51.994;4.448;2023-09-19T10:10:30;2.81;;;2.01;;
71290;SDS011;59073;51.994;4.448;2023-09-19T10:13:06;2.97;;;2.14;;
71290;SDS011;59073;51.994;4.448;2023-09-19T10:15:32;3.53;;;2.55;;
71290;SDS011;59073;51.994;4.448;2023-09-19T10:18:01;3.48;;;2.55;;
71290;SDS011;59073;51.994;4.448;2023-09-19T10:20:30;2.56;;;1.99;;
71290;SDS011;59073;51.994;4.448;2023-09-19T10:23:01;2.59;;;2.05;;
71290;SDS011;59073;51.994;4.448;2023-09-19T10:25:37;1.88;;;1.49;;
71290;SDS011;59073;51.994;4.448;2023-09-19T10:28:08;2.69;;;2.15;;
71290;SDS011;59073;51.994;4.448;2023-09-19T10:30:42;2.76;;;2.23;;
71290;SDS011;59073;51.994;4.448;2023-09-19T10:33:19;2.77;;;2.14;;
71290;SDS011;59073;51.994;4.448;2023-09-19T10:35:50;2.50;;;1.91;;
71290;SDS011;59073;51.994;4.448;2023-09-19T10:38:23;2.67;;;1.97;;
71290;SDS011;59073;51.994;4.448;2023-09-19T10:40:53;2.41;;;1.77;;
71290;SDS011;59073;51.994;4.448;2023-09-19T10:43:20;2.78;;;2.03;;
71290;SDS011;59073;51.994;4.448;2023-09-19T10:45:50;2.55;;;1.86;;
71290;SDS011;59073;51.994;4.448;2023-09-19T10:48:17;2.49;;;1.84;;
71290;SDS011;59073;51.994;4.448;2023-09-19T10:53:29;1.82;;;1.39;;
71290;SDS011;59073;51.994;4.448;2023-09-19T10:56:37;2.07;;;1.58;;
71290;SDS011;59073;51.994;4.448;2023-09-19T10:59:07;2.39;;;1.80;;
71290;SDS011;59073;51.994;4.448;2023-09-19T11:04:28;2.21;;;1.62;;
71290;SDS011;59073;51.994;4.448;2023-09-19T11:06:59;1.95;;;1.44;;
71290;SDS011;59073;51.994;4.448;2023-09-19T11:09:49;1.88;;;1.41;;
71290;SDS011;59073;51.994;4.448;2023-09-19T11:14:56;1.94;;;1.44;;
71290;SDS011;59073;51.994;4.448;2023-09-19T11:17:43;2.05;;;1.51;;
71290;SDS011;59073;51.994;4.448;2023-09-19T11:20:19;2.07;;;1.53;;
71290;SDS011;59073;51.994;4.448;2023-09-19T11:30:33;2.73;;;2.10;;
71290;SDS011;59073;51.994;4.448;2023-09-19T11:43:47;2.08;;;1.63;;
71290;SDS011;59073;51.994;4.448;2023-09-19T11:46:13;2.09;;;1.63;;
71290;SDS011;59073;51.994;4.448;2023-09-19T11:48:47;1.74;;;1.35;;
71290;SDS011;59073;51.994;4.448;2023-09-19T11:51:18;1.90;;;1.48;;
71290;SDS011;59073;51.994;4.448;2023-09-19T11:53:51;2.22;;;1.70;;
71290;SDS011;59073;51.994;4.448;2023-09-19T11:56:21;1.67;;;1.27;;
71290;SDS011;59073;51.994;4.448;2023-09-19T11:58:53;1.77;;;1.34;;
71290;SDS011;59073;51.994;4.448;2023-09-19T12:01:22;2.06;;;1.56;;
71290;SDS011;59073;51.994;4.448;2023-09-19T12:03:54;1.97;;;1.54;;
71290;SDS011;59073;51.994;4.448;2023-09-19T12:06:23;1.64;;;1.31;;
71290;SDS011;59073;51.994;4.448;2023-09-19T12:08:49;1.68;;;1.34;;
71290;SDS011;59073;51.994;4.448;2023-09-19T12:11:19;1.63;;;1.32;;
71290;SDS011;59073;51.994;4.448;2023-09-19T12:13:46;1.31;;;1.08;;
71290;SDS011;59073;51.994;4.448;2023-09-19T12:16:17;1.63;;;1.34;;
71290;SDS011;59073;51.994;4.448;2023-09-19T12:18:47;2.32;;;1.83;;
71290;SDS011;59073;51.994;4.448;2023-09-19T12:21:25;3.19;;;2.46;;
71290;SDS011;59073;51.994;4.448;2023-09-19T12:26:44;2.03;;;1.55;;
71290;SDS011;59073;51.994;4.448;2023-09-19T12:29:20;1.87;;;1.43;;
71290;SDS011;59073;51.994;4.448;2023-09-19T12:31:50;1.53;;;1.20;;
71290;SDS011;59073;51.994;4.448;2023-09-19T12:34:25;1.71;;;1.34;;
71290;SDS011;59073;51.994;4.448;2023-09-19T12:39:36;1.24;;;1.00;;
71290;SDS011;59073;51.994;4.448;2023-09-19T12:42:02;1.33;;;1.08;;
71290;SDS011;59073;51.994;4.448;2023-09-19T12:44:29;1.28;;;1.05;;
71290;SDS011;59073;51.994;4.448;2023-09-19T12:46:55;1.46;;;1.21;;
71290;SDS011;59073;51.994;4.448;2023-09-19T12:49:24;1.54;;;1.29;;
71290;SDS011;59073;51.994;4.448;2023-09-19T12:51:49;1.42;;;1.19;;
71290;SDS011;59073;51.994;4.448;2023-09-19T12:54:20;1.38;;;1.15;;
71290;SDS011;59073;51.994;4.448;2023-09-19T12:56:47;1.44;;;1.20;;
71290;SDS011;59073;51.994;4.448;2023-09-19T12:59:14;1.50;;;1.28;;
71290;SDS011;59073;51.994;4.448;2023-09-19T13:01:40;1.72;;;1.45;;
71290;SDS011;59073;51.994;4.448;2023-09-19T13:04:16;1.78;;;1.50;;
71290;SDS011;59073;51.994;4.448;2023-09-19T13:06:53;1.56;;;1.31;;
71290;SDS011;59073;51.994;4.448;2023-09-19T13:09:20;1.44;;;1.23;;
71290;SDS011;59073;51.994;4.448;2023-09-19T13:11:49;1.70;;;1.43;;
71290;SDS011;59073;51.994;4.448;2023-09-19T13:22:56;1.52;;;1.25;;
71290;SDS011;59073;51.994;4.448;2023-09-19T13:25:09;1.55;;;1.26;;
71290;SDS011;59073;51.994;4.448;2023-09-19T13:27:43;1.74;;;1.41;;
71290;SDS011;59073;51.994;4.448;2023-09-19T13:30:11;2.03;;;1.66;;
71290;SDS011;59073;51.994;4.448;2023-09-19T13:32:38;1.55;;;1.28;;
71290;SDS011;59073;51.994;4.448;2023-09-19T13:35:05;2.29;;;1.85;;
71290;SDS011;59073;51.994;4.448;2023-09-19T13:37:34;1.96;;;1.60;;
71290;SDS011;59073;51.994;4.448;2023-09-19T13:40:01;1.69;;;1.41;;
71290;SDS011;59073;51.994;4.448;2023-09-19T13:42:26;1.82;;;1.54;;
71290;SDS011;59073;51.994;4.448;2023-09-19T13:44:55;2.20;;;1.83;;
71290;SDS011;59073;51.994;4.448;2023-09-19T13:47:21;1.84;;;1.52;;
71290;SDS011;59073;51.994;4.448;2023-09-19T13:49:49;2.00;;;1.70;;
71290;SDS011;59073;51.994;4.448;2023-09-19T13:52:18;2.04;;;1.73;;
71290;SDS011;59073;51.994;4.448;2023-09-19T13:54:44;2.16;;;1.86;;
71290;SDS011;59073;51.994;4.448;2023-09-19T13:57:09;1.73;;;1.51;;
71290;SDS011;59073;51.994;4.448;2023-09-19T13:59:35;1.76;;;1.53;;
71290;SDS011;59073;51.994;4.448;2023-09-19T14:02:00;1.79;;;1.54;;
71290;SDS011;59073;51.994;4.448;2023-09-19T14:04:28;1.93;;;1.68;;
71290;SDS011;59073;51.994;4.448;2023-09-19T14:06:54;2.12;;;1.85;;
71290;SDS011;59073;51.994;4.448;2023-09-19T14:09:19;1.91;;;1.66;;
71290;SDS011;59073;51.994;4.448;2023-09-19T14:11:45;1.80;;;1.55;;
71290;SDS011;59073;51.994;4.448;2023-09-19T14:14:13;2.47;;;2.08;;
71290;SDS011;59073;51.994;4.448;2023-09-19T14:16:38;2.83;;;2.35;;
71290;SDS011;59073;51.994;4.448;2023-09-19T14:19:06;2.24;;;1.89;;
71290;SDS011;59073;51.994;4.448;2023-09-19T14:21:33;1.91;;;1.62;;
71290;SDS011;59073;51.994;4.448;2023-09-19T14:23:58;2.07;;;1.77;;
71290;SDS011;59073;51.994;4.448;2023-09-19T14:26:24;1.89;;;1.64;;
71290;SDS011;59073;51.994;4.448;2023-09-19T14:28:49;2.32;;;2.01;;
71290;SDS011;59073;51.994;4.448;2023-09-19T14:31:15;1.79;;;1.56;;
71290;SDS011;59073;51.994;4.448;2023-09-19T14:33:40;1.97;;;1.71;;
71290;SDS011;59073;51.994;4.448;2023-09-19T14:36:07;2.23;;;1.96;;
71290;SDS011;59073;51.994;4.448;2023-09-19T14:38:36;2.12;;;1.88;;
71290;SDS011;59073;51.994;4.448;2023-09-19T14:41:03;2.31;;;2.00;;
71290;SDS011;59073;51.994;4.448;2023-09-19T14:43:30;1.93;;;1.69;;
71290;SDS011;59073;51.994;4.448;2023-09-19T14:45:57;2.42;;;2.15;;
71290;SDS011;59073;51.994;4.448;2023-09-19T14:48:27;2.06;;;1.85;;
71290;SDS011;59073;51.994;4.448;2023-09-19T14:50:53;2.19;;;1.94;;
71290;SDS011;59073;51.994;4.448;2023-09-19T14:53:20;2.23;;;1.95;;
71290;SDS011;59073;51.994;4.448;2023-09-19T14:55:45;2.26;;;1.98;;
71290;SDS011;59073;51.994;4.448;2023-09-19T14:58:12;1.88;;;1.68;;
71290;SDS011;59073;51.994;4.448;2023-09-19T15:00:39;2.19;;;1.98;;
71290;SDS011;59073;51.994;4.448;2023-09-19T15:03:04;1.98;;;1.80;;
71290;SDS011;59073;51.994;4.448;2023-09-19T15:05:29;2.01;;;1.80;;
71290;SDS011;59073;51.994;4.448;2023-09-19T15:07:55;2.14;;;1.89;;
71290;SDS011;59073;51.994;4.448;2023-09-19T15:10:22;2.66;;;2.27;;
71290;SDS011;59073;51.994;4.448;2023-09-19T15:12:48;2.97;;;2.55;;
71290;SDS011;59073;51.994;4.448;2023-09-19T15:15:13;3.00;;;2.56;;
71290;SDS011;59073;51.994;4.448;2023-09-19T15:17:39;2.37;;;2.07;;
71290;SDS011;59073;51.994;4.448;2023-09-19T15:20:05;2.25;;;1.95;;
71290;SDS011;59073;51.994;4.448;2023-09-19T15:22:35;2.46;;;2.14;;
71290;SDS011;59073;51.994;4.448;2023-09-19T15:25:01;2.16;;;1.91;;
71290;SDS011;59073;51.994;4.448;2023-09-19T15:27:29;2.28;;;2.01;;
71290;SDS011;59073;51.994;4.448;2023-09-19T15:29:56;2.12;;;1.87;;
71290;SDS011;59073;51.994;4.448;2023-09-19T15:32:23;2.29;;;2.03;;
71290;SDS011;59073;51.994;4.448;2023-09-19T15:34:49;2.36;;;2.01;;
71290;SDS011;59073;51.994;4.448;2023-09-19T15:37:14;2.21;;;1.87;;
71290;SDS011;59073;51.994;4.448;2023-09-19T15:39:40;2.29;;;1.93;;
71290;SDS011;59073;51.994;4.448;2023-09-19T15:42:06;2.73;;;2.33;;
71290;SDS011;59073;51.994;4.448;2023-09-19T15:44:31;3.14;;;2.76;;
71290;SDS011;59073;51.994;4.448;2023-09-19T15:46:58;3.48;;;3.10;;
71290;SDS011;59073;51.994;4.448;2023-09-19T15:49:23;3.03;;;2.71;;
71290;SDS011;59073;51.994;4.448;2023-09-19T15:51:49;3.66;;;3.34;;
71290;SDS011;59073;51.994;4.448;2023-09-19T15:54:14;4.81;;;4.64;;
71290;SDS011;59073;51.994;4.448;2023-09-19T15:56:41;2.80;;;2.76;;
71290;SDS011;59073;51.994;4.448;2023-09-19T15:59:07;2.16;;;2.11;;
71290;SDS011;59073;51.994;4.448;2023-09-19T16:01:33;1.89;;;1.79;;